sensor_id;sensor_type;location;lat;lon;timestamp;pressure;altitude;pressure_sealevel;temperature;humidity
58686;BME280;44465;53.206;-6.106;2024-01-30T00:00:33;102258.31;;;20.83;46.48
58686;BME280;44465;53.206;-6.106;2024-01-30T00:03:00;102262.19;;;20.74;46.66
58686;BME280;44465;53.206;-6.106;2024-01-30T00:05:25;102235.56;;;20.68;46.46
58686;BME280;44465;53.206;-6.106;2024-01-30T00:07:52;102248.81;;;20.74;46.27
58686;BME280;44465;53.206;-6.106;2024-01-30T00:10:20;102258.53;;;20.76;46.24
58686;BME280;44465;53.206;-6.106;2024-01-30T00:12:46;102260.22;;;20.79;46.25
58686;BME280;44465;53.206;-6.106;2024-01-30T00:15:12;102256.78;;;20.75;46.14
58686;BME280;44465;53.206;-6.106;2024-01-30T00:17:39;102247.97;;;20.70;46.39
58686;BME280;44465;53.206;-6.106;2024-01-30T00:20:05;102260.28;;;20.77;46.37
58686;BME280;44465;53.206;-6.106;2024-01-30T00:22:32;102269.19;;;20.78;46.40
58686;BME280;44465;53.206;-6.106;2024-01-30T00:24:58;102277.22;;;20.78;46.08
58686;BME280;44465;53.206;-6.106;2024-01-30T00:27:23;102269.44;;;20.69;46.32
58686;BME280;44465;53.206;-6.106;2024-01-30T00:29:49;102265.78;;;20.71;46.03
58686;BME280;44465;53.206;-6.106;2024-01-30T00:32:14;102274.50;;;20.80;46.17
58686;BME280;44465;53.206;-6.106;2024-01-30T00:34:41;102277.28;;;20.76;46.18
58686;BME280;44465;53.206;-6.106;2024-01-30T00:37:07;102271.84;;;20.78;46.16
58686;BME280;44465;53.206;-6.106;2024-01-30T00:39:41;102271.25;;;20.68;45.60
58686;BME280;44465;53.206;-6.106;2024-01-30T00:42:07;102274.72;;;20.70;46.17
58686;BME280;44465;53.206;-6.106;2024-01-30T00:44:35;102285.22;;;20.80;46.32
58686;BME280;44465;53.206;-6.106;2024-01-30T00:47:02;102279.94;;;20.76;46.19
58686;BME280;44465;53.206;-6.106;2024-01-30T00:49:28;102267.53;;;20.72;46.08
58686;BME280;44465;53.206;-6.106;2024-01-30T00:51:54;102283.47;;;20.79;46.10
58686;BME280;44465;53.206;-6.106;2024-01-30T00:54:19;102268.66;;;20.65;45.80
58686;BME280;44465;53.206;-6.106;2024-01-30T00:56:45;102287.16;;;20.74;45.93
58686;BME280;44465;53.206;-6.106;2024-01-30T00:59:11;102290.66;;;20.76;46.24
58686;BME280;44465;53.206;-6.106;2024-01-30T01:01:37;102291.50;;;20.79;45.87
58686;BME280;44465;53.206;-6.106;2024-01-30T01:04:02;102288.16;;;20.69;45.89
58686;BME280;44465;53.206;-6.106;2024-01-30T01:06:28;102287.09;;;20.76;46.09
58686;BME280;44465;53.206;-6.106;2024-01-30T01:08:53;102290.69;;;20.75;46.12
58686;BME280;44465;53.206;-6.106;2024-01-30T01:11:19;102275.13;;;20.58;46.02
58686;BME280;44465;53.206;-6.106;2024-01-30T01:13:44;102306.78;;;20.73;45.90
58686;BME280;44465;53.206;-6.106;2024-01-30T01:16:10;102306.72;;;20.76;46.11
58686;BME280;44465;53.206;-6.106;2024-01-30T01:18:35;102303.16;;;20.76;46.14
58686;BME280;44465;53.206;-6.106;2024-01-30T01:21:01;102303.25;;;20.71;46.00
58686;BME280;44465;53.206;-6.106;2024-01-30T01:23:27;102307.63;;;20.75;45.95
58686;BME280;44465;53.206;-6.106;2024-01-30T01:25:52;102301.50;;;20.70;45.95
58686;BME280;44465;53.206;-6.106;2024-01-30T01:28:18;102307.63;;;20.75;46.05
58686;BME280;44465;53.206;-6.106;2024-01-30T01:30:44;102305.00;;;20.72;45.70
58686;BME280;44465;53.206;-6.106;2024-01-30T01:33:09;102317.47;;;20.75;45.78
58686;BME280;44465;53.206;-6.106;2024-01-30T01:35:35;102323.69;;;20.75;45.65
58686;BME280;44465;53.206;-6.106;2024-01-30T01:38:01;102319.28;;;20.74;45.75
58686;BME280;44465;53.206;-6.106;2024-01-30T01:40:27;102321.97;;;20.73;45.69
58686;BME280;44465;53.206;-6.106;2024-01-30T01:42:55;102317.56;;;20.70;45.65
58686;BME280;44465;53.206;-6.106;2024-01-30T01:45:21;102322.84;;;20.73;45.62
58686;BME280;44465;53.206;-6.106;2024-01-30T01:47:50;102315.91;;;20.66;45.94
58686;BME280;44465;53.206;-6.106;2024-01-30T01:50:18;102300.72;;;20.67;45.83
58686;BME280;44465;53.206;-6.106;2024-01-30T01:52:47;102326.44;;;20.72;45.74
58686;BME280;44465;53.206;-6.106;2024-01-30T01:55:14;102322.13;;;20.68;45.72
58686;BME280;44465;53.206;-6.106;2024-01-30T01:57:41;102331.78;;;20.72;45.81
58686;BME280;44465;53.206;-6.106;2024-01-30T02:00:08;102333.53;;;20.73;45.83
58686;BME280;44465;53.206;-6.106;2024-01-30T02:02:36;102327.41;;;20.70;45.42
58686;BME280;44465;53.206;-6.106;2024-01-30T02:05:02;102338.91;;;20.73;45.84
58686;BME280;44465;53.206;-6.106;2024-01-30T02:07:28;102345.16;;;20.72;45.67
58686;BME280;44465;53.206;-6.106;2024-01-30T02:09:55;102336.34;;;20.69;45.55
58686;BME280;44465;53.206;-6.106;2024-01-30T02:12:20;102340.72;;;20.73;45.57
58686;BME280;44465;53.206;-6.106;2024-01-30T02:14:47;102350.56;;;20.71;46.03
58686;BME280;44465;53.206;-6.106;2024-01-30T02:17:13;102335.56;;;20.65;45.64
58686;BME280;44465;53.206;-6.106;2024-01-30T02:19:39;102354.09;;;20.73;45.60
58686;BME280;44465;53.206;-6.106;2024-01-30T02:22:05;102359.47;;;20.71;45.69
58686;BME280;44465;53.206;-6.106;2024-01-30T02:24:30;102362.16;;;20.71;45.69
58686;BME280;44465;53.206;-6.106;2024-01-30T02:26:56;102366.66;;;20.71;45.61
58686;BME280;44465;53.206;-6.106;2024-01-30T02:29:21;102350.75;;;20.65;45.66
58686;BME280;44465;53.206;-6.106;2024-01-30T02:31:47;102356.91;;;20.68;45.78
58686;BME280;44465;53.206;-6.106;2024-01-30T02:34:13;102300.78;;;20.34;45.90
58686;BME280;44465;53.206;-6.106;2024-01-30T02:36:42;102361.38;;;20.68;45.69
58686;BME280;44465;53.206;-6.106;2024-01-30T02:39:07;102369.38;;;20.69;45.64
58686;BME280;44465;53.206;-6.106;2024-01-30T02:41:33;102353.47;;;20.63;45.63
58686;BME280;44465;53.206;-6.106;2024-01-30T02:43:59;102379.97;;;20.72;45.43
58686;BME280;44465;53.206;-6.106;2024-01-30T02:46:24;102379.09;;;20.72;45.58
58686;BME280;44465;53.206;-6.106;2024-01-30T02:48:50;102385.44;;;20.69;45.51
58686;BME280;44465;53.206;-6.106;2024-01-30T02:51:16;102385.44;;;20.69;45.48
58686;BME280;44465;53.206;-6.106;2024-01-30T02:53:42;102393.41;;;20.71;45.63
58686;BME280;44465;53.206;-6.106;2024-01-30T02:56:07;102388.13;;;20.69;45.45
58686;BME280;44465;53.206;-6.106;2024-01-30T02:58:37;102387.28;;;20.67;45.56
58686;BME280;44465;53.206;-6.106;2024-01-30T03:01:02;102393.50;;;20.68;45.54
58686;BME280;44465;53.206;-6.106;2024-01-30T03:03:28;102398.81;;;20.69;45.42
58686;BME280;44465;53.206;-6.106;2024-01-30T03:05:54;102393.63;;;20.63;45.46
58686;BME280;44465;53.206;-6.106;2024-01-30T03:08:19;102406.88;;;20.68;45.57
58686;BME280;44465;53.206;-6.106;2024-01-30T03:10:46;102413.00;;;20.71;45.41
58686;BME280;44465;53.206;-6.106;2024-01-30T03:13:12;102413.94;;;20.70;45.67
58686;BME280;44465;53.206;-6.106;2024-01-30T03:15:37;102393.69;;;20.60;45.60
58686;BME280;44465;53.206;-6.106;2024-01-30T03:18:03;102409.63;;;20.65;45.46
58686;BME280;44465;53.206;-6.106;2024-01-30T03:20:31;102413.94;;;20.70;45.30
58686;BME280;44465;53.206;-6.106;2024-01-30T03:22:59;102420.19;;;20.71;45.14
58686;BME280;44465;53.206;-6.106;2024-01-30T03:25:25;102429.06;;;20.71;45.51
58686;BME280;44465;53.206;-6.106;2024-01-30T03:27:51;102417.56;;;20.69;45.45
58686;BME280;44465;53.206;-6.106;2024-01-30T03:30:17;102408.81;;;20.63;45.28
58686;BME280;44465;53.206;-6.106;2024-01-30T03:32:43;102412.44;;;20.60;45.58
58686;BME280;44465;53.206;-6.106;2024-01-30T03:35:09;102425.66;;;20.66;45.55
58686;BME280;44465;53.206;-6.106;2024-01-30T03:37:35;102417.91;;;20.57;45.39
58686;BME280;44465;53.206;-6.106;2024-01-30T03:40:01;102437.22;;;20.68;45.59
58686;BME280;44465;53.206;-6.106;2024-01-30T03:42:27;102417.00;;;20.56;45.40
58686;BME280;44465;53.206;-6.106;2024-01-30T03:44:53;102442.56;;;20.68;45.39
58686;BME280;44465;53.206;-6.106;2024-01-30T03:47:21;102443.44;;;20.69;45.48
58686;BME280;44465;53.206;-6.106;2024-01-30T03:49:47;102447.94;;;20.68;45.22
58686;BME280;44465;53.206;-6.106;2024-01-30T03:52:14;102437.28;;;20.65;45.33
58686;BME280;44465;53.206;-6.106;2024-01-30T03:54:41;102442.56;;;20.68;45.42
58686;BME280;44465;53.206;-6.106;2024-01-30T03:57:08;102440.81;;;20.67;45.21
58686;BME280;44465;53.206;-6.106;2024-01-30T03:59:34;102423.25;;;20.57;45.35
58686;BME280;44465;53.206;-6.106;2024-01-30T04:02:02;102432.13;;;20.59;45.34
58686;BME280;44465;53.206;-6.106;2024-01-30T04:04:30;102452.38;;;20.68;45.46
58686;BME280;44465;53.206;-6.106;2024-01-30T04:06:58;102457.78;;;20.66;45.30
58686;BME280;44465;53.206;-6.106;2024-01-30T04:09:24;102459.69;;;20.63;45.40
58686;BME280;44465;53.206;-6.106;2024-01-30T04:11:53;102468.56;;;20.63;45.31
58686;BME280;44465;53.206;-6.106;2024-01-30T04:14:19;102478.34;;;20.64;45.34
58686;BME280;44465;53.206;-6.106;2024-01-30T04:16:46;102475.63;;;20.66;45.14
58686;BME280;44465;53.206;-6.106;2024-01-30T04:19:12;102437.09;;;20.40;45.43
58686;BME280;44465;53.206;-6.106;2024-01-30T04:21:37;102465.09;;;20.59;45.45
58686;BME280;44465;53.206;-6.106;2024-01-30T04:24:03;102490.75;;;20.68;45.28
58686;BME280;44465;53.206;-6.106;2024-01-30T04:26:29;102480.13;;;20.65;45.46
58686;BME280;44465;53.206;-6.106;2024-01-30T04:28:55;102498.78;;;20.68;45.28
58686;BME280;44465;53.206;-6.106;2024-01-30T04:31:20;102496.19;;;20.65;45.18
58686;BME280;44465;53.206;-6.106;2024-01-30T04:33:46;102504.09;;;20.70;45.15
58686;BME280;44465;53.206;-6.106;2024-01-30T04:36:11;102501.53;;;20.65;45.37
58686;BME280;44465;53.206;-6.106;2024-01-30T04:38:38;102509.50;;;20.68;45.48
58686;BME280;44465;53.206;-6.106;2024-01-30T04:41:04;102504.28;;;20.62;45.21
58686;BME280;44465;53.206;-6.106;2024-01-30T04:43:30;102514.00;;;20.66;45.30
58686;BME280;44465;53.206;-6.106;2024-01-30T04:45:56;102512.25;;;20.65;45.30
58686;BME280;44465;53.206;-6.106;2024-01-30T04:48:21;102514.06;;;20.63;45.16
58686;BME280;44465;53.206;-6.106;2024-01-30T04:50:47;102523.91;;;20.63;45.38
58686;BME280;44465;53.206;-6.106;2024-01-30T04:53:12;102507.13;;;20.56;45.10
58686;BME280;44465;53.206;-6.106;2024-01-30T04:55:38;102528.22;;;20.68;45.26
58686;BME280;44465;53.206;-6.106;2024-01-30T04:58:04;102522.28;;;20.57;45.26
58686;BME280;44465;53.206;-6.106;2024-01-30T05:00:29;102542.53;;;20.67;45.09
58686;BME280;44465;53.206;-6.106;2024-01-30T05:02:55;102532.88;;;20.60;45.13
58686;BME280;44465;53.206;-6.106;2024-01-30T05:05:21;102531.81;;;20.67;45.33
58686;BME280;44465;53.206;-6.106;2024-01-30T05:07:47;102539.81;;;20.69;45.26
58686;BME280;44465;53.206;-6.106;2024-01-30T05:10:13;102532.88;;;20.60;45.27
58686;BME280;44465;53.206;-6.106;2024-01-30T05:12:39;102538.09;;;20.66;45.23
58686;BME280;44465;53.206;-6.106;2024-01-30T05:15:05;102533.72;;;20.62;45.27
58686;BME280;44465;53.206;-6.106;2024-01-30T05:17:31;102538.13;;;20.65;45.14
58686;BME280;44465;53.206;-6.106;2024-01-30T05:19:57;102551.47;;;20.66;45.14
58686;BME280;44465;53.206;-6.106;2024-01-30T05:22:22;102540.13;;;20.56;45.46
58686;BME280;44465;53.206;-6.106;2024-01-30T05:24:48;102549.72;;;20.65;45.38
58686;BME280;44465;53.206;-6.106;2024-01-30T05:27:13;102558.66;;;20.64;45.32
58686;BME280;44465;53.206;-6.106;2024-01-30T05:29:39;102556.91;;;20.63;45.33
58686;BME280;44465;53.206;-6.106;2024-01-30T05:32:06;102565.78;;;20.65;45.39
58686;BME280;44465;53.206;-6.106;2024-01-30T05:34:32;102558.72;;;20.61;45.14
58686;BME280;44465;53.206;-6.106;2024-01-30T05:36:58;102566.75;;;20.61;45.35
58686;BME280;44465;53.206;-6.106;2024-01-30T05:39:23;102571.13;;;20.65;45.01
58686;BME280;44465;53.206;-6.106;2024-01-30T05:41:49;102567.69;;;20.60;45.00
58686;BME280;44465;53.206;-6.106;2024-01-30T05:44:14;102565.06;;;20.58;45.23
58686;BME280;44465;53.206;-6.106;2024-01-30T05:46:40;102584.53;;;20.65;45.10
58686;BME280;44465;53.206;-6.106;2024-01-30T05:49:05;102583.59;;;20.66;45.14
58686;BME280;44465;53.206;-6.106;2024-01-30T05:51:31;102563.41;;;20.53;45.26
58686;BME280;44465;53.206;-6.106;2024-01-30T05:53:57;102576.56;;;20.62;45.12
58686;BME280;44465;53.206;-6.106;2024-01-30T05:56:22;102581.91;;;20.64;45.18
58686;BME280;44465;53.206;-6.106;2024-01-30T05:58:48;102581.00;;;20.63;44.96
58686;BME280;44465;53.206;-6.106;2024-01-30T06:01:15;102585.50;;;20.61;45.19
58686;BME280;44465;53.206;-6.106;2024-01-30T06:03:41;102590.78;;;20.64;45.06
58686;BME280;44465;53.206;-6.106;2024-01-30T06:06:08;102588.22;;;20.59;44.91
58686;BME280;44465;53.206;-6.106;2024-01-30T06:08:34;102603.31;;;20.64;45.06
58686;BME280;44465;53.206;-6.106;2024-01-30T06:11:00;102598.97;;;20.58;45.14
58686;BME280;44465;53.206;-6.106;2024-01-30T06:13:26;102608.63;;;20.65;44.96
58686;BME280;44465;53.206;-6.106;2024-01-30T06:15:52;102616.59;;;20.67;45.13
58686;BME280;44465;53.206;-6.106;2024-01-30T06:18:17;102615.78;;;20.63;45.21
58686;BME280;44465;53.206;-6.106;2024-01-30T06:20:43;102603.38;;;20.60;45.03
58686;BME280;44465;53.206;-6.106;2024-01-30T06:23:08;102596.31;;;20.56;45.12
58686;BME280;44465;53.206;-6.106;2024-01-30T06:25:34;102605.13;;;20.61;45.12
58686;BME280;44465;53.206;-6.106;2024-01-30T06:28:00;102610.38;;;20.65;45.24
58686;BME280;44465;53.206;-6.106;2024-01-30T06:30:25;102613.16;;;20.61;45.00
58686;BME280;44465;53.206;-6.106;2024-01-30T06:32:51;102624.75;;;20.62;45.34
58686;BME280;44465;53.206;-6.106;2024-01-30T06:35:16;102622.97;;;20.61;45.08
58686;BME280;44465;53.206;-6.106;2024-01-30T06:37:43;102638.97;;;20.64;45.22
58686;BME280;44465;53.206;-6.106;2024-01-30T06:40:08;102622.19;;;20.57;44.90
58686;BME280;44465;53.206;-6.106;2024-01-30T06:42:34;102636.38;;;20.61;45.09
58686;BME280;44465;53.206;-6.106;2024-01-30T06:45:00;102631.91;;;20.60;44.95
58686;BME280;44465;53.206;-6.106;2024-01-30T06:47:25;102638.13;;;20.62;44.94
58686;BME280;44465;53.206;-6.106;2024-01-30T06:49:51;102630.25;;;20.56;45.31
58686;BME280;44465;53.206;-6.106;2024-01-30T06:52:17;102642.56;;;20.63;44.88
58686;BME280;44465;53.206;-6.106;2024-01-30T06:54:42;102645.28;;;20.61;44.94
58686;BME280;44465;53.206;-6.106;2024-01-30T06:57:08;102648.06;;;20.57;45.05
58686;BME280;44465;53.206;-6.106;2024-01-30T06:59:37;102663.97;;;20.63;44.92
58686;BME280;44465;53.206;-6.106;2024-01-30T07:02:02;102667.56;;;20.64;44.95
58686;BME280;44465;53.206;-6.106;2024-01-30T07:04:28;102670.19;;;20.65;45.10
58686;BME280;44465;53.206;-6.106;2024-01-30T07:06:53;102668.47;;;20.61;45.12
58686;BME280;44465;53.206;-6.106;2024-01-30T07:09:19;102662.44;;;20.53;44.81
58686;BME280;44465;53.206;-6.106;2024-01-30T07:11:44;102667.69;;;20.57;44.95
58686;BME280;44465;53.206;-6.106;2024-01-30T07:14:10;102687.19;;;20.63;44.98
58686;BME280;44465;53.206;-6.106;2024-01-30T07:16:36;102678.38;;;20.59;45.02
58686;BME280;44465;53.206;-6.106;2024-01-30T07:19:01;102683.63;;;20.62;45.03
58686;BME280;44465;53.206;-6.106;2024-01-30T07:21:27;102690.81;;;20.60;45.18
58686;BME280;44465;53.206;-6.106;2024-01-30T07:23:54;102684.63;;;20.58;44.92
58686;BME280;44465;53.206;-6.106;2024-01-30T07:26:20;102680.19;;;20.57;45.01
58686;BME280;44465;53.206;-6.106;2024-01-30T07:28:46;102679.50;;;20.49;44.90
58686;BME280;44465;53.206;-6.106;2024-01-30T07:31:11;102692.66;;;20.58;45.00
58686;BME280;44465;53.206;-6.106;2024-01-30T07:33:37;102689.06;;;20.59;45.01
58686;BME280;44465;53.206;-6.106;2024-01-30T07:36:02;102694.44;;;20.59;44.87
58686;BME280;44465;53.206;-6.106;2024-01-30T07:38:31;102690.00;;;20.58;44.84
58686;BME280;44465;53.206;-6.106;2024-01-30T07:40:56;102690.00;;;20.56;44.80
58686;BME280;44465;53.206;-6.106;2024-01-30T07:43:22;102706.81;;;20.63;44.87
58686;BME280;44465;53.206;-6.106;2024-01-30T07:45:48;102698.88;;;20.58;44.98
58686;BME280;44465;53.206;-6.106;2024-01-30T07:48:13;102707.88;;;20.56;44.90
58686;BME280;44465;53.206;-6.106;2024-01-30T07:50:39;102714.16;;;20.55;44.65
58686;BME280;44465;53.206;-6.106;2024-01-30T07:53:06;102726.56;;;20.57;44.97
58686;BME280;44465;53.206;-6.106;2024-01-30T07:55:31;102730.19;;;20.55;44.85
58686;BME280;44465;53.206;-6.106;2024-01-30T07:57:58;102737.25;;;20.59;45.11
58686;BME280;44465;53.206;-6.106;2024-01-30T08:00:24;102719.66;;;20.49;45.01
58686;BME280;44465;53.206;-6.106;2024-01-30T08:02:49;102742.63;;;20.59;45.00
58686;BME280;44465;53.206;-6.106;2024-01-30T08:05:15;102731.97;;;20.56;45.12
58686;BME280;44465;53.206;-6.106;2024-01-30T08:07:43;102748.84;;;20.59;44.88
58686;BME280;44465;53.206;-6.106;2024-01-30T08:10:11;102747.97;;;20.59;44.91
58686;BME280;44465;53.206;-6.106;2024-01-30T08:12:37;102738.28;;;20.52;44.80
58686;BME280;44465;53.206;-6.106;2024-01-30T08:15:04;102757.78;;;20.58;44.83
58686;BME280;44465;53.206;-6.106;2024-01-30T08:17:30;102750.66;;;20.57;45.09
58686;BME280;44465;53.206;-6.106;2024-01-30T08:19:55;102758.72;;;20.56;45.02
58686;BME280;44465;53.206;-6.106;2024-01-30T08:22:21;102769.38;;;20.59;45.01
58686;BME280;44465;53.206;-6.106;2024-01-30T08:24:46;102775.66;;;20.56;44.88
58686;BME280;44465;53.206;-6.106;2024-01-30T08:27:12;102780.09;;;20.57;45.09
58686;BME280;44465;53.206;-6.106;2024-01-30T08:29:38;102769.50;;;20.53;45.04
58686;BME280;44465;53.206;-6.106;2024-01-30T08:32:07;102772.13;;;20.54;44.79
58686;BME280;44465;53.206;-6.106;2024-01-30T08:34:32;102766.81;;;20.53;44.99
58686;BME280;44465;53.206;-6.106;2024-01-30T08:36:58;102773.03;;;20.55;44.63
58686;BME280;44465;53.206;-6.106;2024-01-30T08:39:24;102785.50;;;20.56;44.86
58686;BME280;44465;53.206;-6.106;2024-01-30T08:41:49;102775.91;;;20.44;44.91
58686;BME280;44465;53.206;-6.106;2024-01-30T08:44:15;102793.53;;;20.56;45.02
58686;BME280;44465;53.206;-6.106;2024-01-30T08:46:41;102785.69;;;20.46;45.03
58686;BME280;44465;53.206;-6.106;2024-01-30T08:49:07;102794.47;;;20.53;45.18
58686;BME280;44465;53.206;-6.106;2024-01-30T08:51:33;102806.91;;;20.56;44.99
58686;BME280;44465;53.206;-6.106;2024-01-30T08:53:59;102787.56;;;20.41;44.98
58686;BME280;44465;53.206;-6.106;2024-01-30T08:56:25;102791.06;;;20.46;44.84
58686;BME280;44465;53.206;-6.106;2024-01-30T08:58:50;102800.84;;;20.48;44.88
58686;BME280;44465;53.206;-6.106;2024-01-30T09:01:16;102812.31;;;20.53;44.88
58686;BME280;44465;53.206;-6.106;2024-01-30T09:03:42;102811.47;;;20.52;44.97
58686;BME280;44465;53.206;-6.106;2024-01-30T09:06:09;102817.63;;;20.56;44.91
58686;BME280;44465;53.206;-6.106;2024-01-30T09:08:35;102813.38;;;20.45;45.12
58686;BME280;44465;53.206;-6.106;2024-01-30T09:11:00;102819.44;;;20.54;44.66
58686;BME280;44465;53.206;-6.106;2024-01-30T09:13:26;102818.63;;;20.50;44.85
58686;BME280;44465;53.206;-6.106;2024-01-30T09:15:51;102830.16;;;20.54;44.83
58686;BME280;44465;53.206;-6.106;2024-01-30T09:18:18;102816.09;;;20.42;44.98
58686;BME280;44465;53.206;-6.106;2024-01-30T09:20:43;102837.31;;;20.52;44.92
58686;BME280;44465;53.206;-6.106;2024-01-30T09:23:12;102845.34;;;20.53;44.70
58686;BME280;44465;53.206;-6.106;2024-01-30T09:25:38;102856.91;;;20.54;44.77
58686;BME280;44465;53.206;-6.106;2024-01-30T09:28:04;102863.22;;;20.50;44.82
58686;BME280;44465;53.206;-6.106;2024-01-30T09:30:30;102860.56;;;20.50;44.76
58686;BME280;44465;53.206;-6.106;2024-01-30T09:32:55;102857.00;;;20.49;44.69
58686;BME280;44465;53.206;-6.106;2024-01-30T09:35:21;102872.97;;;20.54;44.92
58686;BME280;44465;53.206;-6.106;2024-01-30T09:37:47;102878.31;;;20.54;44.68
58686;BME280;44465;53.206;-6.106;2024-01-30T09:40:13;102864.13;;;20.50;44.67
58686;BME280;44465;53.206;-6.106;2024-01-30T09:42:40;102881.84;;;20.56;44.60
58686;BME280;44465;53.206;-6.106;2024-01-30T09:45:07;102881.09;;;20.49;44.90
58686;BME280;44465;53.206;-6.106;2024-01-30T09:47:39;102882.97;;;20.45;44.79
58686;BME280;44465;53.206;-6.106;2024-01-30T09:50:07;102892.63;;;20.53;44.92
58686;BME280;44465;53.206;-6.106;2024-01-30T09:52:33;102877.66;;;20.42;44.65
58686;BME280;44465;53.206;-6.106;2024-01-30T09:54:59;102895.38;;;20.48;44.57
58686;BME280;44465;53.206;-6.106;2024-01-30T09:57:25;102908.69;;;20.53;44.95
58686;BME280;44465;53.206;-6.106;2024-01-30T09:59:51;102905.97;;;20.54;44.74
58686;BME280;44465;53.206;-6.106;2024-01-30T10:02:19;102894.63;;;20.41;44.65
58686;BME280;44465;53.206;-6.106;2024-01-30T10:04:48;102897.06;;;20.54;44.90
58686;BME280;44465;53.206;-6.106;2024-01-30T10:07:14;102901.50;;;20.55;44.76
58686;BME280;44465;53.206;-6.106;2024-01-30T10:09:39;102905.03;;;20.57;44.69
58686;BME280;44465;53.206;-6.106;2024-01-30T10:12:06;102897.97;;;20.53;44.44
58686;BME280;44465;53.206;-6.106;2024-01-30T10:14:33;102898.09;;;20.46;44.43
58686;BME280;44465;53.206;-6.106;2024-01-30T10:16:58;102920.19;;;20.58;44.29
58686;BME280;44465;53.206;-6.106;2024-01-30T10:19:24;102918.34;;;20.61;44.49
58686;BME280;44465;53.206;-6.106;2024-01-30T10:21:50;102904.22;;;20.53;44.74
58686;BME280;44465;53.206;-6.106;2024-01-30T10:24:16;102911.31;;;20.56;44.63
58686;BME280;44465;53.206;-6.106;2024-01-30T10:26:45;102915.75;;;20.55;44.75
58686;BME280;44465;53.206;-6.106;2024-01-30T10:29:11;102909.53;;;20.55;45.07
58686;BME280;44465;53.206;-6.106;2024-01-30T10:31:36;102902.59;;;20.44;44.82
58686;BME280;44465;53.206;-6.106;2024-01-30T10:34:02;102897.38;;;20.38;44.83
58686;BME280;44465;53.206;-6.106;2024-01-30T10:36:34;102929.13;;;20.55;44.80
58686;BME280;44465;53.206;-6.106;2024-01-30T10:39:01;102941.59;;;20.58;44.87
58686;BME280;44465;53.206;-6.106;2024-01-30T10:41:27;102930.00;;;20.59;44.87
58686;BME280;44465;53.206;-6.106;2024-01-30T10:44:08;102924.75;;;20.53;44.88
58686;BME280;44465;53.206;-6.106;2024-01-30T10:46:34;102928.38;;;20.50;45.14
58686;BME280;44465;53.206;-6.106;2024-01-30T10:49:00;102933.63;;;20.55;45.09
58686;BME280;44465;53.206;-6.106;2024-01-30T10:51:26;102902.72;;;20.38;45.00
58686;BME280;44465;53.206;-6.106;2024-01-30T10:53:53;102930.84;;;20.59;45.04
58686;BME280;44465;53.206;-6.106;2024-01-30T10:56:23;102939.78;;;20.58;44.60
58686;BME280;44465;53.206;-6.106;2024-01-30T10:58:53;102947.72;;;20.63;45.08
58686;BME280;44465;53.206;-6.106;2024-01-30T11:01:21;102944.19;;;20.63;44.85
58686;BME280;44465;53.206;-6.106;2024-01-30T11:03:54;102943.38;;;20.59;44.95
58686;BME280;44465;53.206;-6.106;2024-01-30T11:06:24;102948.72;;;20.59;45.02
58686;BME280;44465;53.206;-6.106;2024-01-30T11:09:03;102942.63;;;20.51;44.79
58686;BME280;44465;53.206;-6.106;2024-01-30T11:11:29;102940.78;;;20.53;44.86
58686;BME280;44465;53.206;-6.106;2024-01-30T11:13:55;102950.50;;;20.58;44.85
58686;BME280;44465;53.206;-6.106;2024-01-30T11:16:20;102955.91;;;20.55;44.96
58686;BME280;44465;53.206;-6.106;2024-01-30T11:18:50;102954.09;;;20.59;44.82
58686;BME280;44465;53.206;-6.106;2024-01-30T11:21:17;102952.22;;;20.61;44.89
58686;BME280;44465;53.206;-6.106;2024-01-30T11:23:42;102954.91;;;20.61;44.63
58686;BME280;44465;53.206;-6.106;2024-01-30T11:26:10;102949.69;;;20.55;44.86
58686;BME280;44465;53.206;-6.106;2024-01-30T11:28:37;102975.41;;;20.62;44.83
58686;BME280;44465;53.206;-6.106;2024-01-30T11:31:04;102963.94;;;20.57;44.88
58686;BME280;44465;53.206;-6.106;2024-01-30T11:33:30;102971.91;;;20.58;44.94
58686;BME280;44465;53.206;-6.106;2024-01-30T11:35:58;102978.09;;;20.62;44.65
58686;BME280;44465;53.206;-6.106;2024-01-30T11:38:32;102978.91;;;20.66;45.17
58686;BME280;44465;53.206;-6.106;2024-01-30T11:40:57;102962.94;;;20.63;44.79
58686;BME280;44465;53.206;-6.106;2024-01-30T11:43:24;102961.22;;;20.58;44.60
58686;BME280;44465;53.206;-6.106;2024-01-30T11:45:50;102978.09;;;20.64;44.94
58686;BME280;44465;53.206;-6.106;2024-01-30T11:48:16;102972.75;;;20.62;44.87
58686;BME280;44465;53.206;-6.106;2024-01-30T11:50:43;102951.56;;;20.50;44.78
58686;BME280;44465;53.206;-6.106;2024-01-30T11:53:10;102975.41;;;20.62;44.86
58686;BME280;44465;53.206;-6.106;2024-01-30T11:55:35;102970.97;;;20.63;44.61
58686;BME280;44465;53.206;-6.106;2024-01-30T11:58:03;102967.47;;;20.59;44.87
58686;BME280;44465;53.206;-6.106;2024-01-30T12:00:29;102960.25;;;20.61;44.88
58686;BME280;44465;53.206;-6.106;2024-01-30T12:02:56;102976.28;;;20.64;44.57
58686;BME280;44465;53.206;-6.106;2024-01-30T12:05:22;102962.06;;;20.60;44.84
58686;BME280;44465;53.206;-6.106;2024-01-30T12:07:48;102948.81;;;20.53;44.60
58686;BME280;44465;53.206;-6.106;2024-01-30T12:10:14;102976.22;;;20.67;44.70
58686;BME280;44465;53.206;-6.106;2024-01-30T12:12:41;102960.22;;;20.64;44.91
58686;BME280;44465;53.206;-6.106;2024-01-30T12:15:08;102963.75;;;20.66;44.62
58686;BME280;44465;53.206;-6.106;2024-01-30T12:17:34;102955.75;;;20.63;44.67
58686;BME280;44465;53.206;-6.106;2024-01-30T12:20:06;102948.59;;;20.65;44.53
58686;BME280;44465;53.206;-6.106;2024-01-30T12:22:46;102943.28;;;20.64;44.75
58686;BME280;44465;53.206;-6.106;2024-01-30T12:25:13;102935.25;;;20.62;44.74
58686;BME280;44465;53.206;-6.106;2024-01-30T12:27:42;102931.75;;;20.58;44.71
58686;BME280;44465;53.206;-6.106;2024-01-30T12:30:13;102928.09;;;20.64;44.52
58686;BME280;44465;53.206;-6.106;2024-01-30T12:32:41;102909.59;;;20.52;44.88
58686;BME280;44465;53.206;-6.106;2024-01-30T12:35:14;102922.72;;;20.64;44.63